Главная страница
METAR-TAF:

METAR-TAF

Аэропорты :

Амман, Иордания

широта: 31-59N, долгота: 035-59E, высота над уровнем моря: 767 м

Текущие метеонаблюдения

Эта сводка был подготовлена 1 час и 34 минут назад, в 00:00 UTC
Ветер 3 Узел от западный
Температура 12°C
Влажность 58%
Давление 1019 hPa
Видимость: 7000 м

METAR: OJAM 040000Z 27003KT 7000 NSC 12/04 Q1019 NOSIG

Время: 04:34 (01:34 UTC)

Прогноз

Эта сводка был подготовлена 2 часа и 44 минут назад, в 22:50 UTC
Прогноз действительный с 04-го 00 UTC до 05-го 06 UTC
Ветер 6 Узел от западный
Видимость: 7000 м
изменения
С 04-го 05 UTC до 04-го 07 UTC
Ветер 8 Узел от юго-восточный
Видимость: 5000 м
мгла
Вероятность 40%
С 04-го 21 UTC до 05-го 06 UTC
Ветер 13 Узел от юго-юго-восточный
Видимость: 3000 м
пыль, взвешенная над обширной территорией

TAF: OJAM 032250Z 0400/0506 27006KT 7000 NSC BECMG 0405/0407 14008KT 5000 HZ PROB40 0421/0506 15013KT 3000 DU

Метеонаблюдения и прогнозы для более 4000 аэропортов (сводки METAR и TAF).

Имеющиеся станции представлены на карте желтыми и красными точками.

Чтобы увидеть название станции, наведите на нее мышь.

Затем щелкните, чтобы увидеть метеонаблюдения и метеопрогнозы.

Управление картой: чтобы увеличить масштаб, щелкните зеленые кнопки с черным крестиком; чтобы уменьшить масштаб, щелкните зеленую кнопку с тире; для просмотра соседних карт щелкайте зеленые стрелки.


METAR-TAF: